Neder Holluf, Denmark
Current Conditions -  °F | °C
As of 6:50 AM on Thursday 29 Jan 2015 (Local Time) from EKSB Reporting Station
Clear Clear  
Wind Chill: 28°   Ceiling: Unl
Heat Index: 36°   Visibility: 6mi
Dew Point: 30°   Wind: 12mph
Humidity: 81%   Direction: 220°SW
Pressure: 28.91"   Gusts: NA
Location:  55.36°N, 10.45°E
Report Text: EKSB 290550Z 22010KT 190V250 CAVOK 02/M01 Q0979
Loading
Personal Weather Stations






























Interactive Weather Map New forecast layout! Learn more

10-Day Weather Forecast

Advertisements
Track Severe Weather on mobile